Time;durP1;ratioP1;P1;durP2;ratioP2;P2;SDS_P1;SDS_P2;PMS_P1;PMS_P2;Temp;Humidity;BMP_temperature;BMP_pressure;BME280_temperature;BME280_humidity;BME280_pressure;Samples;Min_cycle;Max_cycle;Signal;HPM_P1;HPM_P2
2023/01/28 00:01:21;;;;;;;2.67;2.58;;;4.20;99.90;;;3.96;93.61;101470.53;4992318;28;20214;-66
2023/01/28 00:03:51;;;;;;;2.50;2.40;;;4.20;99.90;;;3.94;94.03;101469.72;4992741;28;20223;-67
2023/01/28 00:06:19;;;;;;;2.00;1.90;;;4.10;99.90;;;3.93;93.78;101462.88;4974428;28;20618;-67
2023/01/28 00:08:46;;;;;;;2.60;2.50;;;4.10;99.90;;;3.93;94.32;101466.31;4957122;28;20623;-67
2023/01/28 00:11:13;;;;;;;2.40;2.30;;;4.10;99.90;;;4.02;93.19;101467.75;4981486;28;20213;-67
2023/01/28 00:13:41;;;;;;;2.30;2.20;;;4.20;99.90;;;3.99;92.93;101457.53;4989708;28;20202;-67
2023/01/28 00:16:08;;;;;;;2.15;2.05;;;4.30;99.90;;;3.99;92.99;101460.09;4999928;28;20226;-67
2023/01/28 00:18:36;;;;;;;2.20;2.10;;;4.30;99.90;;;3.96;93.68;101456.78;4997088;28;20207;-67
2023/01/28 00:21:09;;;;;;;2.30;2.30;;;4.20;99.90;;;3.96;93.14;101460.22;4990836;28;20707;-67
2023/01/28 00:23:39;;;;;;;2.40;2.30;;;4.20;99.90;;;4.00;93.19;101461.81;4975795;28;20241;-67
2023/01/28 00:26:12;;;;;;;2.03;2.03;;;4.20;99.90;;;3.97;93.15;101451.56;4990919;28;20211;-67
2023/01/28 00:28:41;;;;;;;2.22;2.13;;;4.20;99.90;;;3.94;93.12;101456.81;4983285;28;20703;-69
2023/01/28 00:31:15;;;;;;;1.90;1.80;;;4.20;99.90;;;3.90;93.43;101456.06;4980777;28;20208;-67
2023/01/28 00:33:44;;;;;;;2.78;2.67;;;4.10;99.90;;;3.90;93.17;101456.06;4984197;28;20221;-66
2023/01/28 00:36:12;;;;;;;2.58;2.47;;;4.10;99.90;;;3.87;92.75;101445.88;4991919;28;20596;-68
2023/01/28 00:38:41;;;;;;;2.17;2.08;;;4.10;99.90;;;3.88;92.81;101444.94;4992385;28;20206;-67
2023/01/28 00:41:09;;;;;;;2.30;2.20;;;4.10;99.90;;;3.88;92.73;101446.69;5007382;28;20195;-68
2023/01/28 00:43:37;;;;;;;2.30;2.20;;;4.10;99.90;;;3.85;92.74;101452.78;4995843;28;20210;-67
2023/01/28 00:46:06;;;;;;;2.00;1.90;;;4.10;99.90;;;3.87;92.20;101445.00;4969764;28;20667;-67
2023/01/28 00:48:34;;;;;;;2.30;2.20;;;4.10;99.90;;;3.86;93.39;101449.31;4982263;28;20787;-67
2023/01/28 00:51:01;;;;;;;1.80;1.80;;;4.00;99.90;;;3.88;92.89;101444.94;4976325;28;20206;-67
2023/01/28 00:53:30;;;;;;;2.15;2.05;;;4.10;99.90;;;3.91;93.10;101447.44;5012551;28;20202;-67
2023/01/28 00:55:57;;;;;;;2.33;2.22;;;4.10;99.90;;;3.92;92.66;101448.28;4981738;28;20227;-67
2023/01/28 00:58:24;;;;;;;2.15;2.05;;;4.10;99.90;;;3.91;92.98;101446.59;5007059;28;20236;-68
2023/01/28 01:00:51;;;;;;;2.40;2.30;;;4.20;99.90;;;3.91;92.53;101449.19;5009958;28;20227;-66
2023/01/28 01:03:19;;;;;;;2.22;2.15;;;4.10;99.90;;;3.90;93.02;101455.22;5013002;28;20659;-67
2023/01/28 01:05:46;;;;;;;2.75;2.25;;;4.10;99.90;;;3.87;92.67;101451.03;4997494;28;20203;-67
2023/01/28 01:08:13;;;;;;;2.33;2.22;;;4.10;99.90;;;3.86;93.25;101459.66;5013333;28;20289;-67
2023/01/28 01:10:40;;;;;;;1.98;1.85;;;4.10;99.90;;;3.84;92.85;101455.41;5008884;28;20218;-67
2023/01/28 01:13:07;;;;;;;1.80;1.80;;;4.10;99.90;;;3.85;93.05;101457.13;4984406;28;20207;-67
2023/01/28 01:15:34;;;;;;;2.03;1.92;;;4.10;99.90;;;3.85;93.17;101457.94;5014640;28;20222;-67
2023/01/28 01:18:01;;;;;;;2.17;2.08;;;4.10;99.90;;;3.85;92.68;101454.53;4983974;28;20206;-66
2023/01/28 01:20:32;;;;;;;1.98;1.58;;;4.10;99.90;;;3.86;92.75;101458.78;4992200;28;20219;-66
2023/01/28 01:22:59;;;;;;;1.90;1.80;;;4.10;99.90;;;3.91;92.18;101462.09;5004941;28;20558;-67
2023/01/28 01:25:26;;;;;;;2.28;2.15;;;4.10;99.90;;;3.89;92.36;101459.56;4983124;28;20203;-66
2023/01/28 01:27:53;;;;;;;2.10;2.00;;;4.20;99.90;;;3.87;92.26;101465.66;4976543;28;20226;-67
2023/01/28 01:30:21;;;;;;;2.20;2.10;;;4.10;99.90;;;3.86;92.65;101463.97;4976819;28;20231;-67
2023/01/28 01:32:48;;;;;;;2.03;1.92;;;4.10;99.90;;;3.84;92.74;101463.16;5009056;28;20281;-67
2023/01/28 01:35:15;;;;;;;2.40;2.30;;;4.10;99.90;;;3.86;92.27;101463.97;4998995;28;20751;-67
2023/01/28 01:37:43;;;;;;;2.08;1.98;;;4.10;99.90;;;3.85;93.01;101467.44;5006362;28;20250;-67
2023/01/28 01:40:11;;;;;;;2.17;2.05;;;4.10;99.90;;;3.83;92.39;101469.25;5009575;28;20218;-67
2023/01/28 01:42:38;;;;;;;1.98;1.98;;;4.00;99.90;;;3.83;92.47;101461.50;4995644;28;20209;-67
2023/01/28 01:45:13;;;;;;;1.63;1.52;;;4.10;99.90;;;3.83;91.84;101469.25;4988852;28;20203;-67
2023/01/28 01:48:00;;;;;;;2.70;2.50;;;4.10;99.90;;;3.80;92.97;101459.84;4993883;28;20199;-67
2023/01/28 01:50:34;;;;;;;2.72;2.63;;;4.00;99.90;;;3.80;92.54;101464.16;4993785;28;20219;-67
2023/01/28 01:53:10;;;;;;;2.45;2.35;;;4.00;99.90;;;3.75;92.48;101471.19;4978081;28;20202;-67
2023/01/28 01:55:42;;;;;;;2.58;2.47;;;4.00;99.90;;;3.75;92.29;101466.03;4990095;28;20706;-67
2023/01/28 01:58:15;;;;;;;2.50;2.33;;;4.00;99.90;;;3.74;92.22;101464.34;4994913;28;20198;-67
2023/01/28 02:00:42;;;;;;;2.78;2.67;;;4.00;99.90;;;3.76;92.64;101478.06;5000824;28;20226;-66
2023/01/28 02:03:10;;;;;;;2.85;2.75;;;4.00;99.90;;;3.72;92.44;101481.63;4987772;28;20527;-69
2023/01/28 02:05:38;;;;;;;2.60;2.60;;;4.00;99.90;;;3.74;91.92;101472.09;4999442;28;20199;-67
2023/01/28 02:08:20;;;;;;;2.08;1.98;;;4.00;99.90;;;3.70;92.27;101467.91;4991544;28;20234;-66
2023/01/28 02:10:55;;;;;;;2.38;2.28;;;3.90;99.90;;;3.68;92.11;101467.97;4978824;28;20231;-68
2023/01/28 02:13:27;;;;;;;2.97;2.88;;;3.90;99.90;;;3.68;92.26;101469.69;4993633;28;20211;-67
2023/01/28 02:15:56;;;;;;;2.25;2.15;;;3.90;99.90;;;3.64;92.19;101476.66;4978886;28;20230;-67
2023/01/28 02:18:23;;;;;;;2.90;2.55;;;3.90;99.90;;;3.60;92.61;101482.00;4974970;28;20226;-67
2023/01/28 02:21:34;;;;;;;2.60;2.50;;;3.80;99.90;;;3.61;92.33;101475.94;4993583;28;20215;-67
2023/01/28 02:24:09;;;;;;;2.80;2.70;;;3.80;99.90;;;3.61;92.12;101483.66;4975410;28;20214;-67
2023/01/28 02:27:22;;;;;;;2.60;2.50;;;3.80;99.90;;;3.62;91.63;101490.53;4990395;28;20213;-67
2023/01/28 02:30:03;;;;;;;2.58;2.40;;;3.80;99.90;;;3.62;91.90;101495.69;4975920;28;20223;-67
2023/01/28 02:32:47;;;;;;;2.30;2.20;;;3.80;99.90;;;3.59;91.49;101498.34;4975660;28;20207;-65
2023/01/28 02:35:40;;;;;;;2.42;2.22;;;3.80;99.90;;;3.58;91.85;101486.34;4994203;28;20233;-67
2023/01/28 02:38:25;;;;;;;2.08;1.98;;;3.80;99.90;;;3.57;91.89;101492.41;4976742;28;20211;-67
2023/01/28 02:41:05;;;;;;;2.40;2.30;;;3.80;99.90;;;3.56;92.16;101480.38;4982990;23;20249;-68
2023/01/28 02:43:36;;;;;;;2.00;1.90;;;3.80;99.90;;;3.59;91.56;101485.47;4988750;28;20306;-71
2023/01/28 02:49:37;;;;;;;2.78;2.67;;;3.80;99.90;;;3.59;91.73;101475.13;4975829;28;20654;-66
2023/01/28 02:56:18;;;;;;;2.80;2.70;;;3.90;99.90;;;3.59;91.40;101486.31;4982355;28;20712;-69
2023/01/28 02:59:32;;;;;;;2.17;2.08;;;3.90;99.90;;;3.56;91.71;101491.53;4975193;28;20603;-67
2023/01/28 03:02:44;;;;;;;2.38;2.25;;;3.80;99.90;;;3.57;91.69;101477.78;4984913;28;20208;-66
2023/01/28 03:05:26;;;;;;;2.83;2.63;;;3.80;99.90;;;3.51;91.19;101477.94;4981244;28;20687;-69
2023/01/28 03:07:53;;;;;;;1.88;1.77;;;3.80;99.90;;;3.51;91.46;101479.69;4991618;28;20699;-68
2023/01/28 03:10:23;;;;;;;2.67;2.58;;;3.80;99.90;;;3.45;91.66;101470.38;4982005;28;20231;-66
2023/01/28 03:37:15;;;;;;;2.65;2.55;;;3.60;99.90;;;3.40;91.79;101494.63;4987874;28;20229;-69
2023/01/28 03:39:36;;;;;;;2.65;2.47;;;3.70;99.90;;;3.41;91.62;101494.56;4979759;28;20242;-68
2023/01/28 03:42:04;;;;;;;2.55;2.45;;;3.70;99.90;;;3.41;91.09;101506.66;5002300;28;20195;-66
2023/01/28 03:44:51;;;;;;;2.45;2.30;;;3.70;99.90;;;3.40;91.07;101505.78;5011226;28;20191;-70
2023/01/28 03:47:20;;;;;;;2.63;2.42;;;3.60;99.90;;;3.39;91.63;101498.94;4994661;28;20314;-66
2023/01/28 03:49:49;;;;;;;2.80;2.70;;;3.60;99.90;;;3.40;91.19;101510.09;4990159;28;20231;-66
2023/01/28 03:52:20;;;;;;;2.67;2.58;;;3.60;99.90;;;3.44;91.22;101512.56;4992049;28;20261;-66
2023/01/28 03:54:48;;;;;;;2.97;2.88;;;3.70;99.90;;;3.42;91.41;101513.47;4991297;28;20203;-66
2023/01/28 03:57:16;;;;;;;2.55;2.45;;;3.70;99.90;;;3.39;91.25;101514.41;4991920;28;20228;-65
2023/01/28 03:59:43;;;;;;;3.05;2.85;;;3.70;99.90;;;3.36;90.97;101518.81;4994382;28;20219;-66
2023/01/28 04:02:11;;;;;;;2.97;2.78;;;3.60;99.90;;;3.36;91.18;101530.00;5009556;28;20199;-66
2023/01/28 04:04:39;;;;;;;2.90;2.70;;;3.60;99.90;;;3.30;91.88;101527.56;4996966;28;20207;-66
2023/01/28 04:07:09;;;;;;;3.17;3.00;;;3.50;99.90;;;3.31;91.82;101531.00;4999973;28;20234;-66
2023/01/28 04:09:36;;;;;;;2.10;2.00;;;3.60;99.90;;;3.31;91.46;101523.25;5011008;28;20233;-66
2023/01/28 04:12:04;;;;;;;2.80;2.50;;;3.50;99.90;;;3.29;92.49;101527.59;4991059;28;20668;-66
2023/01/28 04:14:31;;;;;;;2.63;2.53;;;3.50;99.90;;;3.27;92.66;101524.22;4974841;28;20211;-66
2023/01/28 04:16:59;;;;;;;2.10;2.00;;;3.50;99.90;;;3.35;91.76;101533.44;4992038;28;20231;-67
2023/01/28 04:19:27;;;;;;;1.88;1.80;;;3.60;99.90;;;3.35;91.86;101530.00;4992656;28;20648;-67
2023/01/28 04:21:55;;;;;;;2.40;2.30;;;3.60;99.90;;;3.30;91.77;101539.63;5004103;28;20203;-66
2023/01/28 04:24:22;;;;;;;3.00;2.80;;;3.50;99.90;;;3.29;92.16;101532.78;4992225;28;20287;-69
2023/01/28 04:26:49;;;;;;;2.25;2.05;;;3.50;99.90;;;3.30;91.45;101526.75;4999960;28;20282;-67
2023/01/28 04:29:16;;;;;;;2.55;2.45;;;3.50;99.90;;;3.32;91.96;101537.84;5008138;28;20226;-68
2023/01/28 04:31:43;;;;;;;2.20;2.10;;;3.50;99.90;;;3.31;92.19;101531.00;5007345;28;20213;-66
2023/01/28 04:34:10;;;;;;;2.20;2.10;;;3.50;99.90;;;3.31;91.60;101534.41;4997850;28;20210;-67
2023/01/28 04:36:37;;;;;;;2.75;2.55;;;3.60;99.90;;;3.29;91.42;101530.19;4989026;28;20694;-68
2023/01/28 04:39:04;;;;;;;2.60;2.50;;;3.50;99.90;;;3.28;92.38;101529.34;5006484;28;20198;-67
2023/01/28 04:41:31;;;;;;;2.63;2.53;;;3.50;99.90;;;3.29;91.72;101533.63;4994602;28;20199;-67
2023/01/28 04:43:57;;;;;;;2.90;2.70;;;3.50;99.90;;;3.29;91.83;101532.78;5011125;28;20209;-66
2023/01/28 04:46:24;;;;;;;3.00;2.60;;;3.50;99.90;;;3.28;91.66;101537.06;5002962;28;20214;-69
2023/01/28 04:48:51;;;;;;;2.42;2.33;;;3.50;99.90;;;3.29;92.27;101538.78;4997140;28;20614;-66
2023/01/28 04:51:18;;;;;;;2.60;2.50;;;3.50;99.90;;;3.26;92.08;101538.03;5003384;28;20226;-67
2023/01/28 04:53:45;;;;;;;2.72;2.63;;;3.50;99.90;;;3.21;92.01;101530.41;4993038;28;20211;-70
2023/01/28 04:56:12;;;;;;;2.45;2.35;;;3.50;99.90;;;3.23;92.70;101543.25;4996597;28;20231;-67
2023/01/28 04:58:39;;;;;;;2.25;2.15;;;3.50;99.90;;;3.25;92.15;101542.34;4991213;28;20241;-70
2023/01/28 05:01:06;;;;;;;2.17;2.10;;;3.50;99.90;;;3.23;92.32;101549.28;4999811;28;20219;-67
2023/01/28 05:03:32;;;;;;;2.20;2.20;;;3.50;99.90;;;3.24;92.31;101544.97;5001636;28;20287;-67
2023/01/28 05:06:03;;;;;;;2.40;2.30;;;3.50;99.90;;;3.23;91.92;101541.53;5008730;28;20210;-67
2023/01/28 05:08:30;;;;;;;2.53;2.42;;;3.50;99.90;;;3.21;92.20;101539.88;5001873;28;20199;-66
2023/01/28 05:10:57;;;;;;;2.38;2.28;;;3.40;99.90;;;3.20;92.37;101544.19;4996410;28;20282;-67
2023/01/28 05:13:24;;;;;;;2.03;1.92;;;3.40;99.90;;;3.19;92.67;101546.81;4986536;28;20210;-67
2023/01/28 05:15:54;;;;;;;2.30;2.20;;;3.40;99.90;;;3.20;92.37;101548.50;4992299;28;20209;-68
2023/01/28 05:18:21;;;;;;;2.70;2.50;;;3.40;99.90;;;3.19;92.07;101541.66;5002214;28;20200;-67
2023/01/28 05:20:48;;;;;;;1.77;1.77;;;3.40;99.90;;;3.19;92.79;101552.81;5004479;28;20226;-65
2023/01/28 05:23:15;;;;;;;2.40;2.22;;;3.40;99.90;;;3.19;91.84;101546.81;5009621;28;20261;-66
2023/01/28 05:25:42;;;;;;;2.25;1.95;;;3.40;99.90;;;3.18;92.79;101553.69;5007617;28;20202;-66
2023/01/28 05:28:08;;;;;;;2.40;2.30;;;3.40;99.90;;;3.22;92.85;101554.44;5009976;28;20671;-68
2023/01/28 05:30:37;;;;;;;2.55;2.35;;;3.50;99.90;;;3.20;92.67;101554.50;4998585;28;20580;-66
2023/01/28 05:33:04;;;;;;;2.92;2.33;;;3.50;99.90;;;3.23;92.15;101558.72;4992953;28;20219;-67
2023/01/28 05:35:32;;;;;;;2.28;2.17;;;3.50;99.90;;;3.23;92.15;101574.22;5009314;28;20237;-67
2023/01/28 05:37:58;;;;;;;2.08;1.98;;;3.50;99.90;;;3.22;92.59;101565.63;5009099;28;20218;-65
2023/01/28 05:40:25;;;;;;;2.22;2.13;;;3.50;99.90;;;3.21;92.32;101563.94;5003336;28;20227;-66
2023/01/28 05:42:52;;;;;;;2.30;2.20;;;3.50;99.90;;;3.20;92.50;101566.53;5009414;28;20233;-67
2023/01/28 05:45:20;;;;;;;4.30;2.40;;;3.50;99.90;;;3.19;92.96;101577.75;5013575;28;20211;-66
2023/01/28 05:47:47;;;;;;;2.00;1.85;;;3.40;99.90;;;3.20;92.44;101580.28;5006375;28;20226;-67
2023/01/28 05:50:15;;;;;;;2.78;2.42;;;3.50;99.90;;;3.23;92.76;101582.81;4997131;28;20269;-69
2023/01/28 05:52:43;;;;;;;2.22;2.13;;;3.50;99.90;;;3.23;92.59;101587.09;4999287;28;20664;-69
2023/01/28 05:55:10;;;;;;;2.20;2.10;;;3.50;99.90;;;3.17;92.96;101583.78;4996059;28;20594;-67
2023/01/28 05:57:37;;;;;;;4.88;2.42;;;3.50;99.90;;;3.17;92.58;101588.13;4996115;28;20230;-68
2023/01/28 06:00:05;;;;;;;2.85;2.65;;;3.40;99.90;;;3.17;92.40;101589.84;5013189;28;20225;-68
2023/01/28 06:02:32;;;;;;;2.10;2.00;;;3.40;99.90;;;3.19;92.42;101588.06;5012686;28;20245;-67
2023/01/28 06:04:59;;;;;;;2.92;2.72;;;3.50;99.90;;;3.16;92.69;101589.00;4993974;28;20722;-67
2023/01/28 06:07:26;;;;;;;2.90;1.35;;;3.40;99.90;;;3.17;93.40;101601.03;4993841;28;20262;-67
2023/01/28 06:09:53;;;;;;;2.40;2.20;;;3.50;99.90;;;3.12;93.39;101597.69;5003338;28;20230;-67
2023/01/28 06:12:20;;;;;;;3.25;3.00;;;3.40;99.90;;;3.10;93.36;101605.50;5005110;28;20215;-67
2023/01/28 06:14:47;;;;;;;2.85;2.67;;;3.30;99.90;;;3.10;93.23;101597.75;4992085;28;20204;-68
2023/01/28 06:17:13;;;;;;;2.47;2.25;;;3.40;99.90;;;3.08;93.79;101615.00;4993903;28;20234;-66
2023/01/28 06:19:40;;;;;;;3.15;2.90;;;3.30;99.90;;;3.07;93.73;101609.84;4992663;28;20727;-68
2023/01/28 06:22:07;;;;;;;3.35;3.15;;;3.30;99.90;;;3.07;93.33;101615.00;4993233;28;20637;-66
2023/01/28 06:24:35;;;;;;;3.47;3.22;;;3.40;99.90;;;3.10;93.63;101617.53;5002648;28;20206;-66
2023/01/28 06:27:02;;;;;;;2.55;2.45;;;3.40;99.90;;;3.10;93.21;101615.81;5013051;28;20203;-66
2023/01/28 06:29:28;;;;;;;1.80;1.70;;;3.40;99.90;;;3.11;92.88;101619.19;5007655;28;20229;-66
2023/01/28 06:31:55;;;;;;;3.42;3.20;;;3.30;99.90;;;3.12;93.02;101636.38;5013341;28;20207;-67
2023/01/28 06:34:22;;;;;;;2.35;2.25;;;3.30;99.90;;;3.10;92.64;101626.13;5008272;28;20211;-66
2023/01/28 06:36:51;;;;;;;3.20;3.00;;;3.30;99.90;;;3.15;92.75;101634.56;5005173;28;20276;-69
2023/01/28 06:39:20;;;;;;;4.05;2.50;;;3.40;99.90;;;3.14;91.81;101632.88;5011759;28;20230;-65
2023/01/28 06:41:49;;;;;;;3.20;3.00;;;3.40;99.90;;;3.12;92.60;101642.41;5009702;28;20195;-66
2023/01/28 06:44:15;;;;;;;2.80;2.70;;;3.40;99.90;;;3.11;92.49;101638.09;5012673;28;20226;-69
2023/01/28 06:46:42;;;;;;;2.83;2.63;;;3.40;99.90;;;3.09;92.34;101639.88;5005312;28;20203;-66
2023/01/28 06:49:09;;;;;;;2.28;2.17;;;3.40;99.90;;;3.07;92.73;101646.81;4995542;28;20206;-67
2023/01/28 06:51:36;;;;;;;6.63;3.40;;;3.40;99.90;;;3.06;92.10;101652.00;5005013;28;20309;-66
2023/01/28 06:54:04;;;;;;;3.00;2.90;;;3.30;99.90;;;3.02;92.72;101658.97;5006986;28;20568;-68
2023/01/28 06:56:31;;;;;;;2.92;2.72;;;3.30;99.90;;;3.04;92.67;101646.91;5003141;28;21104;-66
2023/01/28 06:58:58;;;;;;;3.70;3.40;;;3.30;99.90;;;3.08;91.70;101656.25;5001219;28;20253;-67
2023/01/28 07:01:25;;;;;;;1.85;1.75;;;3.30;99.90;;;3.10;91.97;101662.22;5006383;28;20203;-67
2023/01/28 07:03:52;;;;;;;2.25;2.15;;;3.30;99.90;;;3.07;92.15;101657.13;5011240;28;20203;-67
2023/01/28 07:06:19;;;;;;;3.03;2.40;;;3.30;99.90;;;3.06;92.20;101660.59;5011359;28;20733;-66
2023/01/28 07:08:46;;;;;;;2.50;2.40;;;3.30;99.90;;;3.08;92.07;101664.00;5004553;28;20199;-69
2023/01/28 07:11:14;;;;;;;2.75;2.60;;;3.30;99.90;;;3.12;91.41;101663.03;5011338;28;20698;-68
2023/01/28 07:13:42;;;;;;;3.17;2.97;;;3.30;99.90;;;3.09;91.19;101668.25;5008027;28;20196;-66
2023/01/28 07:16:09;;;;;;;2.70;2.50;;;3.30;99.90;;;3.10;91.68;101675.09;5011488;28;20286;-66
2023/01/28 07:18:36;;;;;;;2.58;2.40;;;3.40;99.90;;;3.11;90.94;101674.22;5008913;28;20582;-69
2023/01/28 07:21:03;;;;;;;2.40;2.30;;;3.30;99.90;;;3.11;90.53;101669.06;5009158;28;20223;-66
2023/01/28 07:23:30;;;;;;;2.70;2.50;;;3.30;99.90;;;3.11;90.74;101669.06;5011654;28;20253;-70
2023/01/28 07:26:02;;;;;;;3.08;2.88;;;3.30;99.90;;;3.12;90.84;101673.34;5009586;28;20206;-66
2023/01/28 07:28:29;;;;;;;3.05;2.85;;;3.30;99.90;;;3.12;91.08;101668.19;5011095;28;20234;-67
2023/01/28 07:30:56;;;;;;;2.85;2.60;;;3.40;99.90;;;3.15;89.90;101667.25;5001818;28;20227;-69
2023/01/28 07:33:23;;;;;;;3.92;2.60;;;3.40;99.90;;;3.10;90.57;101667.38;5010027;28;20199;-66
2023/01/28 07:35:50;;;;;;;1.88;1.77;;;3.40;99.90;;;3.14;90.15;101668.13;5008325;28;20632;-66
2023/01/28 07:38:17;;;;;;;2.78;2.58;;;3.40;99.90;;;3.14;90.00;101678.44;5006932;28;20226;-66
2023/01/28 07:40:45;;;;;;;2.58;2.47;;;3.40;99.90;;;3.17;90.27;101672.38;5010077;28;20222;-67
2023/01/28 07:43:12;;;;;;;2.35;2.25;;;3.40;99.90;;;3.17;89.88;101677.53;5001725;28;20206;-67
2023/01/28 07:45:39;;;;;;;1.58;1.48;;;3.40;99.90;;;3.19;89.86;101678.34;5011244;28;20204;-66
2023/01/28 07:48:09;;;;;;;2.45;2.30;;;3.40;99.90;;;3.21;89.96;101677.41;4999601;28;20214;-66
2023/01/28 07:50:37;;;;;;;2.55;2.45;;;3.40;99.90;;;3.24;89.83;101673.94;4989275;28;20219;-66
2023/01/28 07:53:06;;;;;;;3.38;3.10;;;3.50;99.90;;;3.25;89.05;101679.03;4973951;28;20199;-66
2023/01/28 07:55:34;;;;;;;2.47;2.38;;;3.50;99.90;;;3.27;89.14;101684.16;4987862;28;20210;-66
2023/01/28 07:58:04;;;;;;;2.90;2.70;;;3.50;99.90;;;3.27;89.41;101690.16;4991472;28;20235;-67
2023/01/28 08:00:34;;;;;;;2.63;2.53;;;3.50;99.90;;;3.24;89.04;101686.81;5000590;28;20706;-66
2023/01/28 08:03:05;;;;;;;2.90;2.67;;;3.50;99.90;;;3.24;88.82;101686.81;4994263;28;20592;-66
2023/01/28 08:05:45;;;;;;;2.40;2.30;;;3.50;99.90;;;3.26;88.79;101680.72;4991072;28;20207;-68
2023/01/28 08:08:12;;;;;;;3.25;2.60;;;3.50;99.90;;;3.29;89.25;101682.38;4977706;28;20214;-66
2023/01/28 08:10:40;;;;;;;2.60;2.50;;;3.50;99.90;;;3.30;88.58;101686.66;4991312;28;20310;-68
2023/01/28 08:13:10;;;;;;;2.70;2.35;;;3.50;99.90;;;3.30;88.59;101687.47;4991690;28;20205;-66
2023/01/28 08:15:37;;;;;;;5.00;2.42;;;3.50;99.90;;;3.32;88.30;101684.88;4997025;28;20203;-71
2023/01/28 08:18:07;;;;;;;0.60;0.60;;;3.60;99.90;;;3.38;88.04;101689.88;5004202;28;20229;-66
2023/01/28 08:20:35;;;;;;;4.13;3.60;;;3.60;99.90;;;3.41;88.11;101697.56;5005930;28;20618;-66
2023/01/28 08:23:11;;;;;;;2.60;2.50;;;3.70;99.90;;;3.43;88.31;101706.09;5000040;28;20202;-66
2023/01/28 08:25:38;;;;;;;3.40;3.22;;;3.70;99.90;;;3.44;87.71;101707.78;5006810;28;20209;-67
2023/01/28 08:28:06;;;;;;;2.95;2.78;;;3.70;99.90;;;3.46;87.41;101698.25;5005759;28;20198;-70
2023/01/28 08:30:36;;;;;;;3.00;2.75;;;3.70;99.90;;;3.44;87.67;101697.47;5011339;28;20779;-68
2023/01/28 08:33:06;;;;;;;3.13;2.97;;;3.70;99.90;;;3.43;87.78;101699.19;5007155;28;20229;-70
2023/01/28 08:35:34;;;;;;;2.58;2.22;;;3.70;99.90;;;3.45;87.66;101701.75;4987254;28;20206;-67
2023/01/28 08:38:03;;;;;;;1.55;1.55;;;3.70;99.90;;;3.48;87.52;101704.22;5002656;28;20280;-69
2023/01/28 08:40:30;;;;;;;2.00;1.80;;;3.70;99.90;;;3.52;87.36;101713.59;5015135;23;20699;-67
2023/01/28 08:42:57;;;;;;;4.03;2.95;;;3.80;99.90;;;3.53;86.99;101707.56;5002803;28;20207;-66
2023/01/28 08:45:26;;;;;;;3.00;2.80;;;3.80;99.90;;;3.50;86.53;101707.63;4992062;28;20574;-66
2023/01/28 08:48:02;;;;;;;2.63;2.53;;;3.80;99.90;;;3.52;86.91;101705.84;4989813;28;20207;-65
2023/01/28 08:50:33;;;;;;;1.73;1.63;;;3.80;99.90;;;3.53;87.35;101703.25;4992420;28;20309;-66
2023/01/28 08:53:06;;;;;;;0.80;0.80;;;3.80;99.90;;;3.55;86.03;101718.69;5005987;28;20225;-66
2023/01/28 08:55:33;;;;;;;2.70;2.60;;;3.80;99.90;;;3.57;86.25;101711.75;5004052;28;20198;-66
2023/01/28 08:58:11;;;;;;;2.80;2.53;;;3.80;99.90;;;3.60;86.18;101701.34;5009785;28;20254;-66
2023/01/28 09:00:38;;;;;;;2.67;2.47;;;3.80;99.90;;;3.63;86.02;101707.28;5006373;28;20218;-66
2023/01/28 09:03:06;;;;;;;3.88;2.30;;;3.90;99.90;;;3.66;86.10;101707.16;4981035;28;20201;-66
2023/01/28 09:05:35;;;;;;;2.45;2.30;;;3.90;99.90;;;3.72;85.63;101706.19;4987620;28;20621;-66
2023/01/28 09:08:13;;;;;;;3.20;3.00;;;4.00;99.90;;;3.68;85.67;101710.59;4988473;28;20261;-65
2023/01/28 09:10:41;;;;;;;1.52;1.48;;;4.00;99.90;;;3.71;85.09;101719.97;4981119;28;20234;-67
2023/01/28 09:13:11;;;;;;;1.58;1.48;;;4.00;99.90;;;3.71;84.95;101712.22;4991253;28;20223;-66
2023/01/28 09:15:39;;;;;;;3.30;3.10;;;4.00;99.90;;;3.68;84.91;101709.72;4983961;28;20229;-67
2023/01/28 09:18:06;;;;;;;2.13;2.00;;;3.90;99.90;;;3.72;85.46;101711.34;4993213;28;20214;-67
2023/01/28 09:20:33;;;;;;;2.70;2.60;;;3.90;99.90;;;3.78;84.96;101717.19;5007708;28;20215;-67
2023/01/28 09:23:01;;;;;;;2.72;2.63;;;4.00;99.90;;;3.82;84.89;101718.81;4980020;28;20916;-66
2023/01/28 09:25:28;;;;;;;3.70;3.22;;;4.10;99.90;;;3.86;84.52;101724.72;5008412;28;20282;-66
2023/01/28 09:27:57;;;;;;;2.65;2.45;;;4.10;99.90;;;3.91;84.39;101725.44;4995031;28;20215;-66
2023/01/28 09:30:24;;;;;;;3.00;2.80;;;4.10;99.90;;;3.99;84.43;101730.38;5005064;28;20309;-67
2023/01/28 09:32:53;;;;;;;2.83;2.63;;;4.20;99.90;;;4.05;84.03;101732.81;5010506;28;20210;-67
2023/01/28 09:35:21;;;;;;;2.47;2.28;;;4.30;99.90;;;4.06;83.80;101735.38;4976151;28;20663;-66
2023/01/28 09:37:48;;;;;;;8.25;2.80;;;4.30;99.90;;;4.09;83.56;101737.03;4995622;28;20230;-65
2023/01/28 09:40:20;;;;;;;3.30;3.00;;;4.30;99.90;;;4.08;83.56;101738.75;5011757;28;20234;-65
2023/01/28 09:43:06;;;;;;;0.65;0.65;;;4.30;99.90;;;4.12;83.60;101740.34;4989595;28;20187;-66
2023/01/28 09:45:41;;;;;;;4.22;3.83;;;4.40;99.90;;;4.12;83.28;101740.34;4993311;28;20214;-66
2023/01/28 09:48:17;;;;;;;3.17;2.97;;;4.40;99.90;;;4.07;83.39;101743.97;4995477;28;20205;-66
2023/01/28 09:50:50;;;;;;;3.67;2.75;;;4.30;99.90;;;4.05;82.86;101743.97;4978360;28;20226;-66
2023/01/28 09:53:27;;;;;;;2.47;2.38;;;4.30;99.90;;;4.08;82.36;101749.06;4977122;28;20747;-66
2023/01/28 09:55:58;;;;;;;2.60;2.40;;;4.40;99.90;;;4.09;82.75;101743.00;4978418;28;20211;-66
2023/01/28 09:58:25;;;;;;;7.38;2.38;;;4.30;99.90;;;4.13;82.74;101742.03;5010984;28;20276;-66
2023/01/28 10:01:35;;;;;;;3.20;3.00;;;4.40;99.90;;;4.21;82.43;101745.28;4996416;28;20219;-66
2023/01/28 10:04:39;;;;;;;2.78;2.63;;;4.40;99.90;;;4.18;82.17;101749.66;4992483;28;20668;-67
2023/01/28 10:07:40;;;;;;;2.03;1.83;;;4.40;99.90;;;4.18;80.40;101753.09;4982043;28;20199;-64
2023/01/28 10:10:19;;;;;;;2.85;2.40;;;4.40;99.90;;;4.19;80.39;101747.06;5007687;28;20242;-65
2023/01/28 10:12:58;;;;;;;2.72;2.63;;;4.40;99.90;;;4.21;80.61;101747.00;5015913;28;20207;-65
2023/01/28 10:15:49;;;;;;;2.72;2.53;;;4.50;99.90;;;4.20;80.08;101747.88;5014815;28;20209;-66
2023/01/28 10:18:30;;;;;;;1.63;1.42;;;4.50;99.90;;;4.24;80.37;101754.69;4996862;28;20289;-65
2023/01/28 10:21:25;;;;;;;3.30;2.20;;;4.50;99.90;;;4.29;79.75;101757.97;4993716;28;20225;-66
2023/01/28 10:24:23;;;;;;;2.50;2.40;;;4.50;99.90;;;4.35;79.21;101745.72;4993823;28;20210;-65
2023/01/28 10:26:52;;;;;;;0.75;0.75;;;4.50;99.90;;;4.45;79.11;101764.41;5001911;28;20671;-65
2023/01/28 10:29:24;;;;;;;2.58;2.47;;;4.70;99.90;;;4.49;79.44;101759.06;5008695;28;20222;-65
2023/01/28 10:32:30;;;;;;;3.10;2.90;;;4.70;99.90;;;4.40;79.29;101763.66;4982092;28;20194;-65
2023/01/28 10:35:03;;;;;;;2.88;2.67;;;4.60;99.90;;;4.38;78.49;101763.72;4998611;28;20207;-65
2023/01/28 10:37:34;;;;;;;2.70;2.50;;;4.60;99.90;;;4.38;78.90;101763.72;5003625;28;20313;-65
2023/01/28 10:40:03;;;;;;;2.22;2.03;;;4.60;99.90;;;4.32;78.71;101763.06;4998321;28;20789;-66
2023/01/28 10:42:36;;;;;;;3.22;2.47;;;4.60;99.90;;;4.25;78.63;101759.78;5013199;28;20210;-65
2023/01/28 10:45:43;;;;;;;3.20;3.00;;;4.60;99.90;;;4.28;77.82;101766.63;5008979;28;20203;-66
2023/01/28 10:48:23;;;;;;;2.63;2.53;;;4.50;99.90;;;4.21;78.14;101765.94;4961435;28;20213;-65
2023/01/28 10:51:01;;;;;;;2.40;2.20;;;4.50;99.90;;;4.25;77.62;101758.94;5004677;28;20789;-66
2023/01/28 10:53:45;;;;;;;2.65;2.55;;;4.50;99.90;;;4.20;78.03;101765.97;4995266;28;20207;-65
2023/01/28 10:56:28;;;;;;;2.70;2.60;;;4.50;99.90;;;4.19;78.46;101766.88;5002113;28;20202;-67
2023/01/28 10:59:19;;;;;;;3.05;2.75;;;4.40;99.90;;;4.26;78.83;101770.97;5011184;28;20282;-66
2023/01/28 11:02:01;;;;;;;3.42;3.10;;;4.40;99.90;;;4.29;78.99;101756.22;5008580;28;20223;-66
2023/01/28 11:04:33;;;;;;;2.70;2.60;;;4.50;99.90;;;4.31;78.49;101754.44;5011444;28;20667;-66
2023/01/28 11:07:05;;;;;;;3.35;2.67;;;4.50;99.90;;;4.34;79.07;101767.28;5013591;28;20576;-66
2023/01/28 11:09:37;;;;;;;2.60;2.50;;;4.60;99.90;;;4.36;78.97;101770.69;5011283;28;20210;-67
2023/01/28 11:12:30;;;;;;;2.22;2.10;;;4.60;99.90;;;4.43;79.52;101769.59;5011990;28;20216;-66
2023/01/28 11:15:02;;;;;;;2.00;1.90;;;4.70;99.90;;;4.41;79.32;101773.09;4992068;28;20286;-67